createdAt,value
2023-05-22T00:01:43.662Z,9.4
2023-05-22T00:05:43.670Z,9.0
2023-05-22T00:07:43.722Z,9.1
2023-05-22T00:09:43.691Z,9.0
2023-05-22T00:11:43.662Z,9.3
2023-05-22T00:13:43.668Z,8.5
2023-05-22T00:19:43.697Z,8.7
2023-05-22T00:27:43.687Z,9.0
2023-05-22T00:29:43.672Z,9.1
2023-05-22T00:31:43.703Z,8.8
2023-05-22T00:35:43.709Z,9.3
2023-05-22T00:37:43.705Z,9.4
2023-05-22T00:39:43.715Z,8.8
2023-05-22T00:43:43.700Z,9.2
2023-05-22T00:47:43.720Z,8.9
2023-05-22T00:51:43.713Z,9.5
2023-05-22T00:53:43.706Z,9.4
2023-05-22T00:55:43.696Z,9.2
2023-05-22T00:57:43.709Z,8.9
2023-05-22T00:59:43.701Z,9.4
2023-05-22T01:03:43.829Z,9.5
2023-05-22T01:09:43.750Z,9.6
2023-05-22T01:11:43.709Z,9.9
2023-05-22T01:13:43.714Z,9.8
2023-05-22T01:15:43.745Z,9.1
2023-05-22T01:17:43.748Z,10.0
2023-05-22T01:21:43.730Z,9.8
2023-05-22T01:23:43.719Z,9.5
2023-05-22T01:31:43.744Z,9.5
2023-05-22T01:33:43.865Z,9.8
2023-05-22T01:35:43.729Z,10.0
2023-05-22T01:37:43.758Z,9.7
2023-05-22T01:39:43.740Z,10.3
2023-05-22T01:43:43.777Z,10.0
2023-05-22T01:45:43.752Z,10.0
2023-05-22T01:49:43.778Z,9.5
2023-05-22T01:53:43.765Z,9.2
2023-05-22T01:55:43.763Z,9.8
2023-05-22T01:57:43.753Z,9.9
2023-05-22T01:59:43.785Z,10.1
2023-05-22T02:01:43.950Z,10.3
2023-05-22T02:07:43.788Z,9.6
2023-05-22T02:09:43.773Z,9.8
2023-05-22T02:15:43.836Z,9.3
2023-05-22T02:17:43.783Z,9.2
2023-05-22T02:19:43.810Z,9.8
2023-05-22T02:21:43.766Z,10.5
2023-05-22T02:25:43.793Z,9.9
2023-05-22T02:27:43.789Z,9.5
2023-05-22T02:33:43.802Z,9.7
2023-05-22T02:35:43.788Z,9.3
2023-05-22T02:37:43.822Z,9.4
2023-05-22T02:43:43.832Z,9.4
2023-05-22T02:45:43.800Z,9.2
2023-05-22T02:47:43.868Z,9.5
2023-05-22T02:53:43.821Z,10.0
2023-05-22T02:55:43.818Z,9.8
2023-05-22T02:57:43.825Z,10.2
2023-05-22T03:01:43.849Z,9.7
2023-05-22T03:05:43.830Z,9.5
2023-05-22T03:07:45.011Z,9.2
2023-05-22T03:11:43.824Z,9.7
2023-05-22T03:13:43.814Z,9.5
2023-05-22T03:15:43.854Z,9.3
2023-05-22T03:21:43.842Z,9.5
2023-05-22T03:23:43.821Z,9.9
2023-05-22T03:25:43.826Z,9.5
2023-05-22T03:27:43.871Z,9.9
2023-05-22T03:31:43.836Z,9.9
2023-05-22T03:35:43.852Z,9.5
2023-05-22T03:37:43.863Z,9.8
2023-05-22T03:41:43.848Z,9.3
2023-05-22T03:49:43.889Z,10.1
2023-05-22T03:55:43.858Z,9.5
2023-05-22T04:05:43.880Z,9.7
2023-05-22T04:07:43.893Z,10.4
2023-05-22T04:09:43.890Z,9.7
2023-05-22T04:19:43.898Z,10.1
2023-05-22T04:25:43.892Z,10.1
2023-05-22T04:31:44.009Z,9.5
2023-05-22T04:35:43.886Z,9.6
2023-05-22T04:37:43.921Z,9.1
2023-05-22T04:43:43.912Z,10.1
2023-05-22T04:53:43.916Z,8.3
2023-05-22T05:05:43.932Z,9.0
2023-05-22T05:07:43.924Z,8.9
2023-05-22T05:09:43.920Z,9.0
2023-05-22T05:13:43.923Z,9.0
2023-05-22T05:15:43.912Z,9.2
2023-05-22T05:17:44.005Z,8.8
2023-05-22T05:19:43.930Z,8.5
2023-05-22T05:21:43.917Z,8.9
2023-05-22T05:23:43.935Z,8.7
2023-05-22T05:31:43.974Z,8.4
2023-05-22T05:37:43.967Z,9.1
2023-05-22T05:39:43.926Z,8.7
2023-05-22T05:41:43.939Z,8.9
2023-05-22T05:43:43.978Z,9.0
2023-05-22T05:47:43.957Z,8.7
2023-05-22T05:51:43.970Z,8.5
2023-05-22T05:59:43.962Z,8.5
2023-05-22T06:05:44.055Z,8.5
2023-05-22T06:09:44.011Z,8.8
2023-05-22T06:11:43.963Z,8.8
2023-05-22T06:13:43.962Z,7.9
2023-05-22T06:15:43.978Z,8.5
2023-05-22T06:19:43.987Z,7.9
2023-05-22T06:23:43.991Z,8.2
2023-05-22T06:25:43.986Z,7.9
2023-05-22T06:27:44.012Z,8.1
2023-05-22T06:31:44.025Z,8.4
2023-05-22T06:33:44.089Z,8.8
2023-05-22T06:35:43.992Z,8.5
2023-05-22T06:37:44.004Z,8.0
2023-05-22T06:39:44.003Z,8.1
2023-05-22T06:43:43.998Z,8.1
2023-05-22T06:45:44.051Z,8.6
2023-05-22T06:47:44.008Z,8.1
2023-05-22T06:51:44.022Z,8.0
2023-05-22T06:55:44.020Z,7.7
2023-05-22T06:57:44.053Z,8.1
2023-05-22T07:03:44.020Z,7.5
2023-05-22T07:05:44.079Z,7.5
2023-05-22T07:07:44.015Z,7.2
2023-05-22T07:11:44.050Z,7.5
2023-05-22T07:15:46.326Z,7.6
2023-05-22T07:17:44.054Z,7.4
2023-05-22T07:19:44.015Z,7.3
2023-05-22T07:21:44.053Z,7.2
2023-05-22T07:23:44.033Z,7.4
2023-05-22T07:27:44.032Z,6.9
2023-05-22T07:29:44.060Z,7.2
2023-05-22T07:31:44.129Z,6.9
2023-05-22T07:33:44.027Z,7.2
2023-05-22T07:35:44.055Z,7.5
2023-05-22T07:37:44.056Z,6.7
2023-05-22T07:43:44.062Z,7.3
2023-05-22T07:45:44.099Z,7.4
2023-05-22T07:47:44.094Z,7.0
2023-05-22T07:51:44.047Z,6.9
2023-05-22T07:53:44.069Z,7.4
2023-05-22T07:55:44.051Z,7.5
2023-05-22T07:57:44.079Z,6.6
2023-05-22T07:59:44.144Z,6.8
2023-05-22T08:01:44.077Z,6.9
2023-05-22T08:03:44.132Z,6.3
2023-05-22T08:05:44.072Z,6.5
2023-05-22T08:09:44.057Z,6.8
2023-05-22T08:13:44.081Z,6.7
2023-05-22T08:17:44.129Z,6.4
2023-05-22T08:19:44.161Z,7.0
2023-05-22T08:23:44.085Z,6.3
2023-05-22T08:27:44.125Z,6.7
2023-05-22T08:29:44.099Z,5.7
2023-05-22T08:31:44.139Z,6.5
2023-05-22T08:35:44.101Z,6.3
2023-05-22T08:39:44.116Z,5.6
2023-05-22T08:41:44.094Z,5.7
2023-05-22T08:43:44.095Z,5.9
2023-05-22T08:47:44.217Z,5.4
2023-05-22T08:49:44.169Z,5.5
2023-05-22T08:51:44.108Z,5.4
2023-05-22T08:53:44.111Z,5.5
2023-05-22T08:55:44.099Z,5.1
2023-05-22T08:57:44.147Z,5.9
2023-05-22T08:59:44.116Z,5.2
2023-05-22T09:07:44.143Z,5.1
2023-05-22T09:09:44.182Z,5.2
2023-05-22T09:11:44.111Z,5.5
2023-05-22T09:13:44.129Z,5.4
2023-05-22T09:17:44.147Z,5.5
2023-05-22T09:19:44.134Z,5.3
2023-05-22T09:21:44.130Z,4.7
2023-05-22T09:23:44.160Z,4.9
2023-05-22T09:27:44.140Z,5.1
2023-05-22T09:29:44.186Z,4.9
2023-05-22T09:31:44.650Z,4.8
2023-05-22T09:33:44.180Z,5.0
2023-05-22T09:35:44.180Z,5.1
2023-05-22T09:39:44.150Z,5.0
2023-05-22T09:45:44.173Z,4.9
2023-05-22T09:47:44.190Z,4.9
2023-05-22T09:49:44.152Z,4.7
2023-05-22T09:51:44.147Z,5.3
2023-05-22T09:55:44.183Z,5.6
2023-05-22T09:57:44.185Z,5.0
2023-05-22T09:59:44.206Z,5.0
2023-05-22T10:01:44.201Z,5.2
2023-05-22T10:05:44.211Z,4.8
2023-05-22T10:09:44.180Z,4.8
2023-05-22T10:11:44.188Z,4.8
2023-05-22T10:13:44.181Z,5.0
2023-05-22T10:15:44.212Z,4.9
2023-05-22T10:17:44.264Z,4.9
2023-05-22T10:23:44.199Z,5.5
2023-05-22T10:25:44.189Z,5.1
2023-05-22T10:29:44.221Z,5.2
2023-05-22T10:31:44.186Z,4.9
2023-05-22T10:33:44.245Z,5.1
2023-05-22T10:35:44.214Z,5.1
2023-05-22T10:37:44.199Z,5.7
2023-05-22T10:39:44.201Z,4.8
2023-05-22T10:41:44.213Z,5.4
2023-05-22T10:45:45.401Z,4.7
2023-05-22T10:47:44.295Z,4.9
2023-05-22T10:49:44.253Z,4.9
2023-05-22T10:51:44.206Z,4.9
2023-05-22T10:53:44.235Z,4.6
2023-05-22T10:55:44.216Z,5.2
2023-05-22T10:57:44.215Z,5.3
2023-05-22T11:01:44.262Z,4.9
2023-05-22T11:03:44.330Z,4.8
2023-05-22T11:05:44.221Z,5.0
2023-05-22T11:07:44.303Z,4.9
2023-05-22T11:09:44.230Z,5.2
2023-05-22T11:11:44.261Z,5.4
2023-05-22T11:13:44.254Z,5.1
2023-05-22T11:15:44.238Z,4.9
2023-05-22T11:17:44.300Z,4.8
2023-05-22T11:19:44.338Z,4.6
2023-05-22T11:21:44.237Z,4.9
2023-05-22T11:25:44.263Z,4.9
2023-05-22T11:27:44.267Z,4.9
2023-05-22T11:29:44.273Z,5.0
2023-05-22T11:31:44.333Z,4.8
2023-05-22T11:35:44.281Z,4.6
2023-05-22T11:39:44.304Z,4.8
2023-05-22T11:41:44.280Z,4.4
2023-05-22T11:43:44.273Z,4.9
2023-05-22T11:45:44.284Z,4.5
2023-05-22T11:47:44.279Z,4.6
2023-05-22T11:49:44.302Z,4.5
2023-05-22T11:53:44.274Z,4.7
2023-05-22T11:55:44.316Z,4.6
2023-05-22T11:57:44.320Z,4.6
2023-05-22T11:59:44.269Z,4.6
2023-05-22T12:01:44.300Z,4.2
2023-05-22T12:03:44.371Z,4.2
2023-05-22T12:05:44.297Z,4.4
2023-05-22T12:11:44.303Z,4.7
2023-05-22T12:15:44.299Z,4.5
2023-05-22T12:17:44.428Z,4.5
2023-05-22T12:19:44.323Z,4.5
2023-05-22T12:21:44.295Z,4.8
2023-05-22T12:23:44.286Z,4.6
2023-05-22T12:25:44.320Z,4.3
2023-05-22T12:29:44.317Z,4.2
2023-05-22T12:33:44.324Z,4.1
2023-05-22T12:35:44.305Z,4.1
2023-05-22T12:37:44.332Z,4.2
2023-05-22T12:39:44.342Z,4.1
2023-05-22T12:41:44.338Z,4.1
2023-05-22T12:43:44.354Z,4.1
2023-05-22T12:45:44.340Z,4.7
2023-05-22T12:49:44.356Z,4.5
2023-05-22T12:51:44.341Z,4.2
2023-05-22T12:53:44.322Z,4.2
2023-05-22T13:01:44.373Z,4.0
2023-05-22T13:03:44.332Z,4.0
2023-05-22T13:05:44.349Z,4.1
2023-05-22T13:07:44.340Z,4.1
2023-05-22T13:09:44.333Z,3.8
2023-05-22T13:11:44.406Z,4.4
2023-05-22T13:13:44.337Z,4.1
2023-05-22T13:15:44.409Z,4.0
2023-05-22T13:17:44.418Z,4.0
2023-05-22T13:19:44.345Z,4.1
2023-05-22T13:23:44.382Z,3.9
2023-05-22T13:25:44.355Z,3.9
2023-05-22T13:27:44.366Z,4.0
2023-05-22T13:29:44.396Z,3.7
2023-05-22T13:31:44.404Z,4.0
2023-05-22T13:33:44.373Z,4.2
2023-05-22T13:37:44.386Z,3.5
2023-05-22T13:39:44.373Z,3.5
2023-05-22T13:41:44.384Z,3.9
2023-05-22T13:43:44.373Z,3.7
2023-05-22T13:45:44.372Z,4.1
2023-05-22T13:47:44.465Z,3.7
2023-05-22T13:49:44.380Z,4.0
2023-05-22T13:51:44.391Z,3.7
2023-05-22T13:53:44.425Z,3.6
2023-05-22T13:55:44.390Z,3.6
2023-05-22T13:57:44.383Z,3.5
2023-05-22T13:59:44.426Z,3.7
2023-05-22T14:03:44.445Z,3.5
2023-05-22T14:05:44.415Z,3.2
2023-05-22T14:07:44.395Z,3.5
2023-05-22T14:09:44.392Z,3.6
2023-05-22T14:11:44.432Z,3.4
2023-05-22T14:13:44.396Z,3.7
2023-05-22T14:15:44.430Z,3.6
2023-05-22T14:17:44.522Z,3.2
2023-05-22T14:19:44.463Z,3.6
2023-05-22T14:21:44.401Z,3.3
2023-05-22T14:23:44.457Z,3.4
2023-05-22T14:25:44.429Z,3.4
2023-05-22T14:27:44.412Z,3.2
2023-05-22T14:29:44.462Z,3.5
2023-05-22T14:31:44.427Z,3.4
2023-05-22T14:33:44.414Z,3.8
2023-05-22T14:35:44.428Z,3.4
2023-05-22T14:37:44.434Z,3.2
2023-05-22T14:39:44.430Z,3.3
2023-05-22T14:41:44.438Z,4.1
2023-05-22T14:43:44.433Z,3.5
2023-05-22T14:47:44.514Z,3.8
2023-05-22T14:51:44.443Z,3.4
2023-05-22T14:53:44.480Z,3.4
2023-05-22T14:55:44.445Z,3.5
2023-05-22T14:57:44.463Z,3.1
2023-05-22T14:59:44.494Z,3.6
2023-05-22T15:01:44.543Z,3.4
2023-05-22T15:03:44.448Z,3.4
2023-05-22T15:05:44.479Z,3.2
2023-05-22T15:09:44.464Z,3.3
2023-05-22T15:11:44.477Z,3.2
2023-05-22T15:13:44.467Z,3.0
2023-05-22T15:17:44.620Z,3.2
2023-05-22T15:19:44.483Z,3.5
2023-05-22T15:21:44.479Z,3.2
2023-05-22T15:23:44.505Z,3.2
2023-05-22T15:25:44.471Z,3.1
2023-05-22T15:29:44.540Z,3.3
2023-05-22T15:33:44.474Z,3.2
2023-05-22T15:35:44.502Z,3.3
2023-05-22T15:37:44.485Z,3.1
2023-05-22T15:39:44.503Z,3.2
2023-05-22T15:41:51.564Z,3.0
2023-05-22T15:43:44.527Z,2.9
2023-05-22T15:45:44.889Z,3.3
2023-05-22T15:47:44.546Z,3.0
2023-05-22T15:49:44.489Z,3.3
2023-05-22T15:51:44.504Z,2.8
2023-05-22T15:53:44.500Z,3.4
2023-05-22T15:55:44.497Z,2.8
2023-05-22T15:57:44.676Z,3.0
2023-05-22T15:59:44.512Z,3.1
2023-05-22T16:01:44.546Z,2.7
2023-05-22T16:03:44.642Z,3.0
2023-05-22T16:05:44.514Z,3.4
2023-05-22T16:09:44.541Z,2.7
2023-05-22T16:11:44.526Z,2.6
2023-05-22T16:13:44.541Z,3.0
2023-05-22T16:15:44.742Z,3.0
2023-05-22T16:17:44.603Z,2.9
2023-05-22T16:19:44.521Z,2.9
2023-05-22T16:21:44.575Z,2.9
2023-05-22T16:23:44.528Z,3.0
2023-05-22T16:25:44.536Z,3.1
2023-05-22T16:29:44.545Z,2.8
2023-05-22T16:33:44.567Z,3.2
2023-05-22T16:37:44.576Z,2.6
2023-05-22T16:39:44.548Z,3.0
2023-05-22T16:43:44.590Z,2.9
2023-05-22T16:45:44.565Z,2.8
2023-05-22T16:47:44.611Z,3.4
2023-05-22T16:49:44.582Z,3.1
2023-05-22T16:51:44.574Z,3.5
2023-05-22T16:53:44.572Z,3.7
2023-05-22T16:55:44.602Z,3.5
2023-05-22T16:57:44.559Z,3.6
2023-05-22T16:59:44.574Z,3.7
2023-05-22T17:03:44.906Z,3.6
2023-05-22T17:05:44.579Z,3.6
2023-05-22T17:07:44.632Z,3.5
2023-05-22T17:11:44.584Z,4.2
2023-05-22T17:13:44.610Z,3.5
2023-05-22T17:15:44.583Z,4.8
2023-05-22T17:17:44.662Z,3.7
2023-05-22T17:23:44.617Z,3.6
2023-05-22T17:25:44.604Z,3.5
2023-05-22T17:29:44.596Z,3.7
2023-05-22T17:31:44.636Z,3.8
2023-05-22T17:33:44.616Z,3.8
2023-05-22T17:35:44.589Z,3.5
2023-05-22T17:37:44.633Z,6.0
2023-05-22T17:39:44.592Z,4.2
2023-05-22T17:41:44.604Z,3.5
2023-05-22T17:45:44.716Z,3.7
2023-05-22T17:47:44.652Z,3.8
2023-05-22T17:49:44.651Z,3.6
2023-05-22T17:51:44.619Z,3.8
2023-05-22T17:53:44.660Z,3.7
2023-05-22T17:55:44.629Z,3.6
2023-05-22T17:57:44.625Z,3.9
2023-05-22T18:01:44.690Z,3.7
2023-05-22T18:07:44.679Z,4.0
2023-05-22T18:09:44.669Z,5.9
2023-05-22T18:11:44.633Z,4.4
2023-05-22T18:13:44.682Z,4.4
2023-05-22T18:15:44.740Z,4.2
2023-05-22T18:19:44.686Z,4.8
2023-05-22T18:23:44.663Z,4.4
2023-05-22T18:27:44.676Z,4.1
2023-05-22T18:29:44.648Z,4.4
2023-05-22T18:41:44.702Z,5.3
2023-05-22T18:43:44.664Z,4.0
2023-05-22T18:45:44.676Z,4.3
2023-05-22T18:47:44.744Z,5.0
2023-05-22T18:51:44.713Z,21.1
2023-05-22T18:55:44.684Z,4.3
2023-05-22T18:57:44.720Z,3.9
2023-05-22T18:59:44.670Z,3.8
2023-05-22T19:03:44.719Z,4.0
2023-05-22T19:05:44.687Z,4.1
2023-05-22T19:09:44.739Z,3.8
2023-05-22T19:11:44.690Z,3.8
2023-05-22T19:15:44.700Z,3.5
2023-05-22T19:21:44.708Z,3.9
2023-05-22T19:25:44.709Z,3.9
2023-05-22T19:31:44.787Z,3.6
2023-05-22T19:39:44.749Z,3.7
2023-05-22T19:41:44.718Z,4.0
2023-05-22T19:43:44.734Z,3.7
2023-05-22T19:49:45.058Z,3.7
2023-05-22T19:51:44.746Z,3.7
2023-05-22T20:01:44.811Z,3.6
2023-05-22T20:03:44.897Z,3.7
2023-05-22T20:05:44.749Z,4.0
2023-05-22T20:09:44.781Z,3.5
2023-05-22T20:11:44.763Z,3.6
2023-05-22T20:13:44.742Z,4.3
2023-05-22T20:15:44.764Z,3.7
2023-05-22T20:17:44.856Z,3.5
2023-05-22T20:23:44.771Z,3.7
2023-05-22T20:31:44.817Z,3.6
2023-05-22T20:35:44.804Z,3.9
2023-05-22T20:43:44.793Z,3.9
2023-05-22T20:47:44.861Z,4.2
2023-05-22T20:49:44.786Z,3.8
2023-05-22T20:55:44.812Z,3.6
2023-05-22T20:59:44.830Z,3.9
2023-05-22T21:01:44.826Z,3.7
2023-05-22T21:03:44.805Z,3.7
2023-05-22T21:05:44.850Z,3.9
2023-05-22T21:07:44.806Z,3.7
2023-05-22T21:09:44.801Z,3.8
2023-05-22T21:13:44.822Z,3.9
2023-05-22T21:15:44.835Z,3.9
2023-05-22T21:19:44.858Z,4.0
2023-05-22T21:21:44.806Z,3.7
2023-05-22T21:23:44.838Z,3.9
2023-05-22T21:25:44.835Z,3.9
2023-05-22T21:27:44.817Z,3.8
2023-05-22T21:29:44.826Z,3.8
2023-05-22T21:35:44.845Z,4.0
2023-05-22T21:37:44.859Z,3.5
2023-05-22T21:47:44.893Z,4.1
2023-05-22T21:53:44.860Z,4.2
2023-05-22T21:57:44.884Z,3.7
2023-05-22T21:59:44.901Z,4.0
2023-05-22T22:03:44.957Z,3.9
2023-05-22T22:05:44.854Z,3.9
2023-05-22T22:09:44.953Z,3.9
2023-05-22T22:11:44.856Z,4.0
2023-05-22T22:19:44.901Z,4.2
2023-05-22T22:21:44.880Z,4.1
2023-05-22T22:25:44.867Z,4.2
2023-05-22T22:27:44.895Z,3.9
2023-05-22T22:29:44.890Z,4.4
2023-05-22T22:31:44.950Z,4.1
2023-05-22T22:33:44.910Z,4.3
2023-05-22T22:39:44.925Z,4.1
2023-05-22T22:41:44.876Z,4.1
2023-05-22T22:43:44.885Z,4.1
2023-05-22T22:45:44.932Z,4.5
2023-05-22T22:49:44.906Z,4.3
2023-05-22T22:51:44.910Z,3.9
2023-05-22T22:53:44.890Z,4.1
2023-05-22T22:55:44.924Z,4.3
2023-05-22T22:57:44.934Z,4.4
2023-05-22T22:59:44.900Z,4.1
2023-05-22T23:01:44.990Z,4.4
2023-05-22T23:03:44.949Z,4.2
2023-05-22T23:05:45.222Z,4.4
2023-05-22T23:07:44.946Z,4.3
2023-05-22T23:09:44.985Z,4.5
2023-05-22T23:11:44.915Z,4.2
2023-05-22T23:13:44.947Z,4.4
2023-05-22T23:15:44.969Z,4.3
2023-05-22T23:25:44.935Z,4.5
2023-05-22T23:29:44.972Z,4.8
2023-05-22T23:37:44.951Z,4.6
2023-05-22T23:39:44.971Z,4.8
2023-05-22T23:41:44.933Z,4.8
2023-05-22T23:43:44.941Z,4.9
2023-05-22T23:45:44.974Z,4.9
2023-05-22T23:47:45.026Z,5.0
2023-05-22T23:51:45.286Z,5.2
2023-05-22T23:53:44.954Z,4.9
2023-05-22T23:55:44.962Z,4.9
2023-05-22T23:59:44.969Z,4.9
